Terminal Aerodrome Forecast
Issued by NWS

Home | Current Version | Previous Version | Text Only | Print | Product List | Glossary On
Versions: 1 2 3 4 5 6 7 8 9 10 11 12 13 14 15 16 17 18 19 20 21
000
FTUS44 KTSA 251724
TAFFYV
TAF
KFYV 251724Z 2518/2618 00000KT P6SM SCT035
     FM252000 18011KT P6SM OVC025
     FM260600 18007KT 4SM BR OVC015
     FM261200 19011KT P6SM OVC015=

USA.gov is the U.S. government's official web portal to all federal, state and local government web resources and services.